Time;durP1;ratioP1;P1;durP2;ratioP2;P2;SDS_P1;SDS_P2;PMS_P1;PMS_P2;Temp;Humidity;BMP_temperature;BMP_pressure;BME280_temperature;BME280_humidity;BME280_pressure;Samples;Min_cycle;Max_cycle;Signal;HPM_P1;HPM_P2
2023/02/15 00:01:46;;;;;;;137.90;69.70;;;;;;;0.84;100.00;99661.09;106143;1254;72042;-78
2023/02/15 00:04:14;;;;;;;160.60;80.90;;;;;;;0.82;100.00;99660.30;106063;1254;60626;-80
2023/02/15 00:06:40;;;;;;;158.70;79.70;;;;;;;0.80;100.00;99658.11;105922;1257;72423;-80
2023/02/15 00:09:06;;;;;;;138.40;70.90;;;;;;;0.77;100.00;99657.27;104958;1254;1342147;-78
2023/02/15 00:11:51;;;;;;;133.00;68.50;;;;;;;0.76;100.00;99663.64;105925;1254;60463;-78
2023/02/15 00:14:22;;;;;;;124.80;64.10;;;;;;;0.74;100.00;99661.02;105915;1254;72080;-81
2023/02/15 00:16:50;;;;;;;125.20;63.20;;;;;;;0.74;100.00;99659.26;105931;1254;71154;-79
2023/02/15 00:19:18;;;;;;;141.60;65.70;;;;;;;0.75;100.00;99655.95;105957;1257;72479;-79
2023/02/15 00:21:45;;;;;;;130.70;65.60;;;;;;;0.77;100.00;99654.65;105975;1253;60395;-78
2023/02/15 00:24:13;;;;;;;119.60;61.20;;;;;;;0.77;100.00;99646.65;105819;1259;60487;-81
2023/02/15 00:26:39;;;;;;;110.40;56.30;;;;;;;0.76;100.00;99644.90;106226;1254;73725;-78
2023/02/15 00:29:06;;;;;;;114.80;58.40;;;;;;;0.80;100.00;99646.12;105968;1254;71084;-78
2023/02/15 00:31:33;;;;;;;139.40;68.80;;;;;;;0.80;100.00;99645.38;105893;1254;71463;-80
2023/02/15 00:34:03;;;;;;;123.20;64.20;;;;;;;0.79;100.00;99641.39;105958;1257;60391;-77
2023/02/15 00:36:30;;;;;;;127.40;60.40;;;;;;;0.81;100.00;99643.50;105923;1254;60418;-82
2023/02/15 00:38:56;;;;;;;98.40;52.30;;;;;;;0.81;100.00;99636.83;106085;1254;60527;-77
2023/02/15 00:41:23;;;;;;;109.90;53.60;;;;;;;0.83;100.00;99630.27;105925;1257;60475;-78
2023/02/15 00:43:49;;;;;;;114.00;56.80;;;;;;;0.82;100.00;99627.84;105864;1254;60833;-78
2023/02/15 00:46:16;;;;;;;109.10;57.30;;;;;;;0.84;100.00;99625.19;105959;1256;60545;-78
2023/02/15 00:48:42;;;;;;;102.60;55.50;;;;;;;0.83;100.00;99622.59;105957;1254;60517;-80
2023/02/15 00:51:09;;;;;;;117.30;59.60;;;;;;;0.86;100.00;99624.63;105968;1254;60569;-79
2023/02/15 00:53:35;;;;;;;120.40;58.40;;;;;;;0.88;100.00;99616.54;105944;1257;60517;-77
2023/02/15 00:56:01;;;;;;;123.20;62.60;;;;;;;0.90;100.00;99616.52;105947;1254;60488;-77
2023/02/15 00:58:28;;;;;;;117.00;59.50;;;;;;;0.93;100.00;99608.15;105928;1257;60539;-79
2023/02/15 01:00:54;;;;;;;112.30;60.00;;;;;;;0.93;100.00;99605.94;105934;1257;60544;-80
2023/02/15 01:03:21;;;;;;;110.40;59.10;;;;;;;0.95;100.00;99602.58;105930;1256;60556;-79
2023/02/15 01:05:48;;;;;;;102.50;52.20;;;;;;;0.93;100.00;99605.41;105960;1254;60566;-77
2023/02/15 01:08:17;;;;;;;116.00;54.60;;;;;;;0.90;100.00;99599.77;105948;1253;71324;-78
2023/02/15 01:10:45;;;;;;;113.70;52.90;;;;;;;0.88;100.00;99599.62;105948;1254;60486;-77
2023/02/15 01:13:12;;;;;;;99.10;53.20;;;;;;;0.89;100.00;99599.02;105817;1254;60488;-79
2023/02/15 01:15:39;;;;;;;101.10;52.60;;;;;;;0.89;100.00;99598.68;105945;1253;72784;-77
2023/02/15 01:18:06;;;;;;;113.60;54.50;;;;;;;0.90;100.00;99598.90;105866;1254;69817;-77
2023/02/15 01:20:34;;;;;;;98.50;50.10;;;;;;;0.89;100.00;99601.85;105945;1253;60342;-79
2023/02/15 01:23:00;;;;;;;97.50;53.80;;;;;;;0.91;100.00;99596.98;105936;1254;60550;-78
2023/02/15 01:25:27;;;;;;;102.00;55.10;;;;;;;0.93;100.00;99595.54;105933;1254;60520;-78
2023/02/15 01:27:53;;;;;;;97.00;48.90;;;;;;;0.91;100.00;99592.02;105927;1257;60409;-80
2023/02/15 01:30:20;;;;;;;95.00;50.30;;;;;;;0.90;100.00;99590.83;105943;1256;60423;-79
2023/02/15 01:32:46;;;;;;;109.50;54.70;;;;;;;0.91;100.00;99586.85;105933;1254;61348;-77
2023/02/15 01:35:12;;;;;;;104.70;52.30;;;;;;;0.89;100.00;99582.80;105982;1254;60647;-77
2023/02/15 01:37:39;;;;;;;91.70;46.20;;;;;;;0.91;100.00;99579.21;105932;1254;60557;-79
2023/02/15 01:40:07;;;;;;;94.20;49.80;;;;;;;0.91;100.00;99577.77;106067;1254;60414;-79
2023/02/15 01:42:34;;;;;;;91.10;46.90;;;;;;;0.93;100.00;99577.18;106171;1254;70885;-78
2023/02/15 01:45:25;;;;;;;91.20;48.00;;;;;;;0.92;100.00;99571.09;106207;1256;60516;-77
2023/02/15 01:47:56;;;;;;;97.90;48.80;;;;;;;0.91;100.00;99565.05;106246;1256;60431;-77
2023/02/15 01:50:34;;;;;;;91.50;46.70;;;;;;;0.94;100.00;99564.11;106141;1254;60516;-79
2023/02/15 01:53:24;;;;;;;56.30;31.00;;;;;;;0.94;100.00;99559.13;106188;1256;73707;-77
2023/02/15 01:55:59;;;;;;;38.40;18.80;;;;;;;0.97;100.00;99560.27;106173;1253;60964;-77
2023/02/15 01:58:27;;;;;;;33.40;17.70;;;;;;;1.05;100.00;99559.66;106139;1254;72623;-79
2023/02/15 02:00:53;;;;;;;30.50;15.70;;;;;;;1.11;100.00;99557.36;106124;1254;60487;-79
2023/02/15 02:03:23;;;;;;;33.60;16.10;;;;;;;1.17;100.00;99556.67;105900;1254;60452;-77
2023/02/15 02:05:50;;;;;;;30.60;15.80;;;;;;;1.21;100.00;99557.61;105962;1254;73752;-77
2023/02/15 02:08:17;;;;;;;32.80;15.70;;;;;;;1.24;100.00;99553.21;105972;1257;69797;-79
2023/02/15 02:10:43;;;;;;;31.00;15.70;;;;;;;1.27;100.00;99553.30;105814;1259;60482;-80
2023/02/15 02:13:10;;;;;;;49.50;21.10;;;;;;;1.31;100.00;99553.77;105937;1254;60462;-77
2023/02/15 02:15:54;;;;;;;37.30;18.70;;;;;;;1.33;100.00;99554.21;105814;1254;60511;-79
2023/02/15 02:18:38;;;;;;;34.40;17.10;;;;;;;1.34;100.00;99551.05;105874;1254;72687;-79
2023/02/15 02:21:34;;;;;;;27.20;14.90;;;;;;;1.34;100.00;99550.48;105963;1258;69816;-77
2023/02/15 02:24:21;;;;;;;33.00;16.20;;;;;;;1.35;100.00;99548.47;106146;1257;71481;-78
2023/02/15 02:26:54;;;;;;;33.90;16.80;;;;;;;1.36;100.00;99549.20;105861;1254;61294;-77
2023/02/15 02:29:39;;;;;;;31.80;16.20;;;;;;;1.36;100.00;99547.06;105898;1252;61000;-79
2023/02/15 02:32:19;;;;;;;26.10;14.00;;;;;;;1.36;100.00;99541.62;106167;1254;73696;-77
2023/02/15 02:34:53;;;;;;;27.80;13.80;;;;;;;1.32;100.00;99541.90;106225;1256;70115;-77
2023/02/15 02:37:37;;;;;;;26.90;14.60;;;;;;;1.30;100.00;99538.55;105983;1254;70758;-77
2023/02/15 02:40:18;;;;;;;34.20;17.10;;;;;;;1.31;100.00;99537.58;106052;1253;61872;-79
2023/02/15 02:42:49;;;;;;;23.80;14.90;;;;;;;1.33;100.00;99535.35;106209;1253;60418;-78
2023/02/15 02:45:21;;;;;;;29.00;15.10;;;;;;;1.30;100.00;99528.28;105902;1258;72695;-81
2023/02/15 02:47:50;;;;;;;28.40;14.90;;;;;;;1.27;100.00;99527.66;106146;1256;69908;-80
2023/02/15 02:50:21;;;;;;;27.30;14.50;;;;;;;1.26;100.00;99527.51;105984;1258;71414;-80
2023/02/15 02:52:49;;;;;;;28.10;15.00;;;;;;;1.27;100.00;99526.82;106165;1254;61007;-79
2023/02/15 02:55:21;;;;;;;25.30;13.90;;;;;;;1.27;100.00;99522.42;106157;1256;60428;-80
2023/02/15 02:57:52;;;;;;;30.80;16.50;;;;;;;1.26;100.00;99524.60;106172;1256;72823;-80
2023/02/15 03:00:20;;;;;;;35.60;18.90;;;;;;;1.28;100.00;99524.22;106157;1254;69074;-78
2023/02/15 03:02:48;;;;;;;45.10;23.30;;;;;;;1.31;100.00;99523.69;106123;1256;72562;-80
2023/02/15 03:05:17;;;;;;;36.10;17.60;;;;;;;1.33;100.00;99523.02;105971;1254;60465;-80
2023/02/15 03:07:46;;;;;;;31.00;17.00;;;;;;;1.34;100.00;99520.20;106008;1258;60409;-78
2023/02/15 03:10:12;;;;;;;31.50;16.80;;;;;;;1.35;100.00;99518.39;105967;1254;73733;-78
2023/02/15 03:12:39;;;;;;;40.50;18.90;;;;;;;1.32;100.00;99517.83;105953;1254;61572;-75
2023/02/15 03:15:11;;;;;;;35.10;19.00;;;;;;;1.32;100.00;99514.50;105979;1256;60552;-78
2023/02/15 03:17:40;;;;;;;32.10;17.90;;;;;;;1.31;100.00;99517.20;106114;1254;60564;-78
2023/02/15 03:20:18;;;;;;;38.00;18.40;;;;;;;1.28;100.00;99516.70;106162;1254;60345;-80
2023/02/15 03:22:50;;;;;;;33.20;18.20;;;;;;;1.26;100.00;99514.66;105939;1254;73146;-78
2023/02/15 03:25:21;;;;;;;32.30;17.40;;;;;;;1.24;100.00;99517.22;105933;1259;70004;-80
2023/02/15 03:27:49;;;;;;;29.10;16.60;;;;;;;1.24;100.00;99517.23;106153;1254;72546;-78
2023/02/15 03:30:17;;;;;;;37.30;18.40;;;;;;;1.21;100.00;99513.28;106200;1254;60453;-78
2023/02/15 03:32:44;;;;;;;33.60;17.90;;;;;;;1.22;100.00;99509.67;106167;1254;60462;-78
2023/02/15 03:35:10;;;;;;;29.40;16.40;;;;;;;1.23;100.00;99506.15;106019;1254;60421;-78
2023/02/15 03:37:48;;;;;;;31.10;15.70;;;;;;;1.22;100.00;99502.36;106137;1256;70986;-80
2023/02/15 03:43:19;;;;;;;36.80;18.10;;;;;;;1.17;100.00;99497.63;106117;1254;60517;-78
2023/02/15 03:45:54;;;;;;;37.00;18.30;;;;;;;1.14;100.00;99497.36;106141;1254;60417;-78
2023/02/15 03:48:32;;;;;;;31.20;16.60;;;;;;;1.13;100.00;99499.86;106057;1254;73649;-79
2023/02/15 03:53:50;;;;;;;37.90;18.60;;;;;;;1.09;100.00;99496.58;106161;1256;72577;-78
2023/02/15 03:56:16;;;;;;;36.30;19.90;;;;;;;1.07;100.00;99497.83;105943;1254;60453;-78
2023/02/15 04:04:22;;;;;;;28.10;15.70;;;;;;;0.99;100.00;99490.43;106219;1256;70050;-80
2023/02/15 04:06:48;;;;;;;28.00;15.30;;;;;;;0.96;100.00;99490.45;105834;1254;71475;-80
2023/02/15 04:12:00;;;;;;;26.90;15.20;;;;;;;0.90;100.00;99492.54;106016;1254;60525;-78
2023/02/15 04:17:11;;;;;;;35.30;18.10;;;;;;;0.88;100.00;99488.46;106007;1254;71125;-79
2023/02/15 04:25:11;;;;;;;35.60;16.90;;;;;;;0.83;100.00;99486.36;106084;1256;61592;-80
2023/02/15 04:27:39;;;;;;;36.30;19.00;;;;;;;0.75;100.00;99486.53;106165;1255;72767;-80
2023/02/15 04:30:06;;;;;;;32.60;16.50;;;;;;;0.70;100.00;99488.96;106243;1256;70924;-80
2023/02/15 04:32:33;;;;;;;33.50;16.00;;;;;;;0.64;100.00;99486.60;106156;1254;72152;-78
2023/02/15 04:35:00;;;;;;;35.10;18.80;;;;;;;0.57;100.00;99488.83;106171;1257;60421;-78
2023/02/15 04:37:27;;;;;;;30.90;16.40;;;;;;;0.52;100.00;99490.55;106153;1253;60421;-78
2023/02/15 04:39:53;;;;;;;36.80;18.30;;;;;;;0.47;100.00;99488.77;106195;1256;60479;-78
2023/02/15 04:42:19;;;;;;;42.00;21.50;;;;;;;0.42;100.00;99488.75;106120;1254;60463;-80
2023/02/15 04:44:46;;;;;;;44.30;21.90;;;;;;;0.36;100.00;99491.41;106269;1255;60620;-82
2023/02/15 04:47:12;;;;;;;41.20;24.60;;;;;;;0.30;100.00;99492.91;106216;1257;60428;-79
2023/02/15 04:49:39;;;;;;;49.30;27.30;;;;;;;0.27;100.00;99492.73;106142;1254;60441;-79
2023/02/15 04:52:05;;;;;;;46.70;26.00;;;;;;;0.23;100.00;99495.11;106155;1254;60347;-77
2023/02/15 04:54:32;;;;;;;51.80;27.80;;;;;;;0.18;100.00;99491.64;106169;1254;62197;-77
2023/02/15 04:56:58;;;;;;;48.00;26.10;;;;;;;0.13;100.00;99491.36;106183;1254;61366;-77
2023/02/15 04:59:25;;;;;;;45.10;24.50;;;;;;;0.10;100.00;99492.56;106209;1256;60584;-77
2023/02/15 05:01:51;;;;;;;38.10;20.50;;;;;;;0.08;100.00;99491.62;106160;1254;60539;-77
2023/02/15 05:04:17;;;;;;;39.10;19.80;;;;;;;0.04;100.00;99488.65;106095;1254;60456;-80
2023/02/15 05:06:44;;;;;;;36.50;20.70;;;;;;;0.01;100.00;99490.27;105971;1257;60924;-79
2023/02/15 05:09:11;;;;;;;27.40;17.00;;;;;;;-0.02;100.00;99490.21;106009;1259;60582;-79
2023/02/15 05:11:37;;;;;;;36.10;19.30;;;;;;;-0.04;100.00;99485.67;105993;1254;60559;-79
2023/02/15 05:14:05;;;;;;;31.00;15.00;;;;;;;-0.06;100.00;99487.29;106044;1254;60565;-79
2023/02/15 05:16:31;;;;;;;34.80;18.10;;;;;;;-0.09;100.00;99490.86;106003;1258;73696;-77
2023/02/15 05:18:57;;;;;;;24.80;12.30;;;;;;;-0.11;100.00;99491.40;106018;1258;60482;-77
2023/02/15 05:21:24;;;;;;;33.70;18.40;;;;;;;-0.12;100.00;99495.81;106010;1254;60460;-77
2023/02/15 05:23:50;;;;;;;36.10;20.20;;;;;;;-0.13;100.00;99494.02;105961;1254;60441;-79
2023/02/15 05:29:05;;;;;;;30.80;16.80;;;;;;;-0.17;100.00;99495.67;106027;1254;65162;-77
2023/02/15 05:31:31;;;;;;;39.10;19.10;;;;;;;-0.18;100.00;99495.27;106040;1257;60460;-81
2023/02/15 05:33:58;;;;;;;39.40;18.90;;;;;;;-0.19;100.00;99497.70;106002;1254;60407;-79
2023/02/15 05:36:24;;;;;;;32.60;18.60;;;;;;;-0.21;100.00;99493.98;106002;1254;60471;-79
2023/02/15 05:38:51;;;;;;;30.00;18.10;;;;;;;-0.23;100.00;99498.55;106331;1254;60440;-77
2023/02/15 05:41:17;;;;;;;31.90;18.00;;;;;;;-0.27;100.00;99498.24;106192;1254;60536;-77
2023/02/15 05:43:44;;;;;;;30.80;17.40;;;;;;;-0.30;100.00;99497.50;106239;1256;60985;-77
2023/02/15 05:46:10;;;;;;;35.30;17.90;;;;;;;-0.30;100.00;99497.84;106142;1254;60541;-79
2023/02/15 05:48:36;;;;;;;33.80;17.60;;;;;;;-0.31;100.00;99500.80;106225;1254;60542;-77
2023/02/15 05:51:08;;;;;;;32.10;18.70;;;;;;;-0.33;100.00;99501.95;105934;1254;60575;-77
2023/02/15 05:53:36;;;;;;;28.80;15.90;;;;;;;-0.36;100.00;99499.29;105956;1258;65132;-77
2023/02/15 05:56:03;;;;;;;32.40;18.40;;;;;;;-0.41;100.00;99502.78;106137;1256;71461;-77
2023/02/15 05:58:31;;;;;;;32.80;18.30;;;;;;;-0.41;100.00;99501.34;106109;1256;72580;-76
2023/02/15 06:00:58;;;;;;;30.60;16.30;;;;;;;-0.41;100.00;99504.22;106126;1254;60537;-78
2023/02/15 06:03:25;;;;;;;36.50;19.50;;;;;;;-0.41;100.00;99500.16;106046;1256;60345;-79
2023/02/15 06:05:52;;;;;;;35.60;17.20;;;;;;;-0.41;100.00;99500.20;106268;1259;73760;-76
2023/02/15 06:08:18;;;;;;;33.50;17.80;;;;;;;-0.40;100.00;99498.89;106032;1254;70990;-78
2023/02/15 06:10:45;;;;;;;40.10;19.60;;;;;;;-0.40;100.00;99501.82;106005;1254;60481;-78
2023/02/15 06:13:12;;;;;;;36.70;18.50;;;;;;;-0.40;100.00;99498.32;106115;1259;60405;-78
2023/02/15 06:15:38;;;;;;;44.70;22.60;;;;;;;-0.39;100.00;99504.74;106116;1256;60344;-75
2023/02/15 06:18:05;;;;;;;36.40;21.30;;;;;;;-0.38;100.00;99504.96;106159;1256;60451;-78
2023/02/15 06:20:31;;;;;;;32.00;19.40;;;;;;;-0.38;100.00;99502.10;106045;1254;60459;-76
2023/02/15 06:22:57;;;;;;;37.90;19.70;;;;;;;-0.36;100.00;99504.38;106015;1259;60548;-76
2023/02/15 06:25:24;;;;;;;37.90;20.20;;;;;;;-0.35;100.00;99501.23;106019;1259;60465;-76
2023/02/15 06:27:50;;;;;;;38.20;21.10;;;;;;;-0.33;100.00;99503.77;106018;1258;61357;-76
2023/02/15 06:30:17;;;;;;;34.80;19.30;;;;;;;-0.32;100.00;99501.31;106167;1254;60545;-78
2023/02/15 06:32:44;;;;;;;35.70;19.60;;;;;;;-0.29;100.00;99503.30;106022;1256;60427;-76
2023/02/15 06:35:10;;;;;;;42.80;21.10;;;;;;;-0.25;100.00;99499.48;105869;1259;60411;-78
2023/02/15 06:37:37;;;;;;;36.50;20.00;;;;;;;-0.22;100.00;99502.83;105892;1254;60450;-78
2023/02/15 06:40:04;;;;;;;33.20;17.50;;;;;;;-0.19;100.00;99498.98;106052;1254;60529;-78
2023/02/15 06:42:30;;;;;;;37.00;17.00;;;;;;;-0.17;100.00;99501.92;106044;1254;74923;-76
2023/02/15 06:44:57;;;;;;;34.70;18.40;;;;;;;-0.12;100.00;99499.78;106011;1254;60440;-76
2023/02/15 06:47:23;;;;;;;37.40;17.60;;;;;;;-0.07;100.00;99504.13;106030;1254;60427;-81
2023/02/15 06:49:49;;;;;;;39.50;19.90;;;;;;;-0.02;100.00;99502.11;106365;1257;60537;-81
2023/02/15 06:52:16;;;;;;;38.00;18.70;;;;;;;0.03;100.00;99504.63;107335;1256;60525;-77
2023/02/15 06:54:42;;;;;;;41.40;21.20;;;;;;;0.08;100.00;99506.48;106188;1257;60627;-77
2023/02/15 06:57:09;;;;;;;45.00;20.80;;;;;;;0.18;100.00;99501.02;106281;1254;60538;-77
2023/02/15 06:59:36;;;;;;;37.50;20.30;;;;;;;0.26;100.00;99504.70;106010;1259;60481;-79
2023/02/15 07:02:02;;;;;;;47.40;20.80;;;;;;;0.36;100.00;99501.67;107831;1254;60488;-77
2023/02/15 07:04:29;;;;;;;39.70;21.30;;;;;;;0.51;100.00;99495.98;106215;1254;60523;-77
2023/02/15 07:06:56;;;;;;;43.50;21.00;;;;;;;0.49;100.00;99490.16;106848;1253;73895;-77
2023/02/15 07:09:22;;;;;;;45.20;23.30;;;;;;;0.54;100.00;99493.73;106397;1254;60335;-80
2023/02/15 07:14:34;;;;;;;40.50;20.60;;;;;;;0.84;100.00;99488.92;106081;1254;60517;-77
2023/02/15 07:17:00;;;;;;;41.00;24.00;;;;;;;1.12;100.00;99487.34;106882;1254;59112;-78
2023/02/15 07:19:26;;;;;;;45.30;25.20;;;;;;;1.29;100.00;99487.02;109074;1254;59487;-80
2023/02/15 07:21:53;;;;;;;45.90;27.30;;;;;;;1.31;100.00;99483.46;108364;1256;60909;-77
2023/02/15 07:24:19;;;;;;;54.20;35.90;;;;;;;1.23;100.00;99482.08;106836;1254;60507;-78
2023/02/15 07:26:46;;;;;;;45.70;22.90;;;;;;;1.21;100.00;99480.20;106906;1257;60536;-79
2023/02/15 07:29:12;;;;;;;43.30;22.30;;;;;;;1.20;100.00;99477.48;106058;1254;60457;-80
2023/02/15 07:31:39;;;;;;;46.50;22.90;;;;;;;1.22;100.00;99480.55;107830;1254;60342;-80
2023/02/15 07:34:07;;;;;;;41.50;23.60;;;;;;;1.61;100.00;99476.41;108492;1256;60536;-80
2023/02/15 07:36:34;;;;;;;42.00;23.10;;;;;;;1.79;100.00;99476.52;106792;1254;72585;-78
2023/02/15 07:39:00;;;;;;;48.70;26.40;;;;;;;1.78;100.00;99473.28;106671;1253;60539;-80
2023/02/15 07:41:27;;;;;;;48.10;26.10;;;;;;;1.75;100.00;99474.78;107715;1253;60352;-80
2023/02/15 07:43:53;;;;;;;43.30;22.40;;;;;;;1.65;100.00;99475.33;108439;1254;74017;-78
2023/02/15 07:46:20;;;;;;;39.80;20.10;;;;;;;1.60;100.00;99470.52;109167;1254;70120;-80
2023/02/15 07:48:47;;;;;;;39.70;20.40;;;;;;;1.54;100.00;99473.40;108740;1254;72548;-80
2023/02/15 07:51:14;;;;;;;100.80;43.70;;;;;;;1.55;100.00;99469.48;106706;1259;60527;-80
2023/02/15 07:53:40;;;;;;;40.50;23.70;;;;;;;1.56;100.00;99467.57;108792;1252;60189;-80
2023/02/15 07:56:10;;;;;;;55.20;27.40;;;;;;;1.57;100.00;99469.46;109115;1254;73678;-79
2023/02/15 07:58:52;;;;;;;50.30;28.20;;;;;;;1.58;100.00;99461.17;109293;1254;70886;-78
2023/02/15 08:01:19;;;;;;;89.90;43.00;;;;;;;1.62;100.00;99463.05;109219;1254;71386;-78
2023/02/15 08:03:46;;;;;;;49.40;26.90;;;;;;;1.66;100.00;99463.29;107338;1258;60406;-80
2023/02/15 08:06:13;;;;;;;63.50;38.20;;;;;;;1.67;100.00;99465.18;106529;1255;60469;-80
2023/02/15 08:08:40;;;;;;;58.80;33.70;;;;;;;1.70;100.00;99466.04;106172;1256;73995;-79
2023/02/15 08:11:25;;;;;;;67.60;44.20;;;;;;;1.72;100.00;99461.52;107118;1254;70894;-78
2023/02/15 08:13:58;;;;;;;47.10;26.20;;;;;;;1.76;100.00;99462.86;106543;1254;72538;-78
2023/02/15 08:16:36;;;;;;;39.00;18.40;;;;;;;1.78;100.00;99458.31;106326;1254;61480;-79
2023/02/15 08:19:07;;;;;;;37.30;21.10;;;;;;;1.81;100.00;99461.62;106617;1259;62396;-77
2023/02/15 08:21:35;;;;;;;33.30;18.20;;;;;;;1.87;100.00;99462.90;107386;1254;73203;-80
2023/02/15 08:24:02;;;;;;;36.20;19.50;;;;;;;1.90;100.00;99458.97;106588;1259;70032;-80
2023/02/15 08:26:29;;;;;;;34.70;18.10;;;;;;;1.93;100.00;99453.52;106287;1254;72374;-80
2023/02/15 08:28:57;;;;;;;29.50;16.00;;;;;;;1.99;100.00;99456.21;106264;1255;60651;-79
2023/02/15 08:31:24;;;;;;;30.50;17.20;;;;;;;2.03;100.00;99457.56;107367;1254;60335;-77
2023/02/15 08:33:52;;;;;;;30.10;16.50;;;;;;;2.08;100.00;99450.10;106117;1259;74959;-77
2023/02/15 08:36:20;;;;;;;30.70;17.60;;;;;;;2.11;100.00;99445.60;106307;1257;70961;-80
2023/02/15 08:38:46;;;;;;;31.80;18.80;;;;;;;2.14;100.00;99442.27;106564;1254;72607;-78
2023/02/15 08:41:20;;;;;;;33.90;17.60;;;;;;;2.20;100.00;99443.99;107580;1257;60776;-80
2023/02/15 08:43:49;;;;;;;35.20;20.00;;;;;;;2.29;100.00;99436.10;106753;1254;60987;-80
2023/02/15 08:46:16;;;;;;;34.80;20.00;;;;;;;2.37;100.00;99432.09;106417;1254;72671;-79
2023/02/15 08:48:45;;;;;;;33.90;18.90;;;;;;;2.43;100.00;99432.33;106124;1257;70079;-77
2023/02/15 08:51:23;;;;;;;54.40;39.70;;;;;;;2.51;100.00;99437.30;107450;1256;60431;-80
2023/02/15 08:53:52;;;;;;;35.00;19.30;;;;;;;2.57;100.00;99431.86;106292;1254;60402;-80
2023/02/15 08:56:20;;;;;;;28.50;17.70;;;;;;;2.63;100.00;99430.20;106214;1254;60424;-80
2023/02/15 08:58:47;;;;;;;34.70;18.10;;;;;;;2.70;100.00;99426.93;106246;1258;74924;-80
2023/02/15 09:01:23;;;;;;;33.10;18.40;;;;;;;2.77;100.00;99421.06;107410;1257;60342;-79
2023/02/15 09:03:57;;;;;;;31.90;16.10;;;;;;;2.86;100.00;99419.77;106632;1259;71411;-78
2023/02/15 09:06:23;;;;;;;24.30;14.70;;;;;;;2.92;100.00;99415.89;106319;1259;60543;-78
2023/02/15 09:08:50;;;;;;;28.70;15.70;;;;;;;3.01;100.00;99420.69;106731;1254;60475;-77
2023/02/15 09:11:24;;;;;;;37.10;16.60;;;;;;;3.05;100.00;99418.77;107555;1253;72904;-76
2023/02/15 09:13:52;;;;;;;27.70;16.60;;;;;;;3.12;100.00;99416.54;106721;1256;70477;-79
2023/02/15 09:16:19;;;;;;;30.10;15.80;;;;;;;3.18;100.00;99417.27;106392;1257;71612;-79
2023/02/15 09:18:45;;;;;;;32.20;16.40;;;;;;;3.24;100.00;99416.84;106546;1256;60614;-78
2023/02/15 09:21:13;;;;;;;33.90;16.20;;;;;;;3.31;100.00;99417.55;107669;1254;60317;-79
2023/02/15 09:23:44;;;;;;;27.20;16.40;;;;;;;3.36;100.00;99416.46;107000;1256;75115;-77
2023/02/15 09:26:15;;;;;;;29.40;15.40;;;;;;;3.43;100.00;99411.80;106378;1256;70990;-76
2023/02/15 09:28:42;;;;;;;33.00;16.00;;;;;;;3.53;100.00;99409.10;106391;1254;71421;-76
2023/02/15 09:31:17;;;;;;;32.30;17.00;;;;;;;3.62;100.00;99406.41;107670;1253;60310;-78
2023/02/15 09:33:44;;;;;;;30.40;16.80;;;;;;;3.73;100.00;99403.94;106615;1254;60391;-76
2023/02/15 09:36:15;;;;;;;31.40;15.20;;;;;;;3.84;100.00;99400.75;106211;1256;73742;-78
2023/02/15 09:38:42;;;;;;;33.00;18.00;;;;;;;3.91;100.00;99398.62;106223;1254;71194;-76
2023/02/15 09:41:39;;;;;;;29.40;17.00;;;;;;;3.97;100.00;99393.43;107273;1254;72134;-76
2023/02/15 09:44:37;;;;;;;34.20;19.20;;;;;;;4.07;100.00;99388.41;106203;1260;60386;-77
2023/02/15 09:47:11;;;;;;;32.70;18.30;;;;;;;4.17;100.00;99387.69;106126;1253;61252;-79
2023/02/15 09:50:08;;;;;;;24.10;13.70;;;;;;;4.31;100.00;99385.38;106076;1257;73759;-78
2023/02/15 09:52:59;;;;;;;26.00;14.00;;;;;;;4.42;100.00;99382.73;108283;1256;70099;-77
2023/02/15 09:56:06;;;;;;;25.10;15.20;;;;;;;4.50;100.00;99380.74;106327;1254;72575;-79
2023/02/15 09:58:52;;;;;;;33.20;15.30;;;;;;;4.58;100.00;99379.13;106404;1257;60358;-76
2023/02/15 10:01:31;;;;;;;23.00;13.10;;;;;;;4.67;100.00;99372.10;106387;1256;60418;-79
2023/02/15 10:04:00;;;;;;;24.00;13.70;;;;;;;4.75;100.00;99370.77;107120;1254;73810;-79
2023/02/15 10:06:33;;;;;;;;;;;;;;;4.86;100.00;99369.02;106334;1257;70288;-77
2023/02/15 10:09:35;;;;;;;24.90;13.10;;;;;;;4.94;100.00;99363.41;106275;1254;72272;-77
2023/02/15 10:12:20;;;;;;;33.60;16.00;;;;;;;5.07;100.00;99353.54;107416;1267;60408;-77
2023/02/15 10:14:51;;;;;;;24.20;13.60;;;;;;;5.25;100.00;99350.38;106122;1254;61406;-77
2023/02/15 10:17:30;;;;;;;25.80;14.00;;;;;;;5.41;100.00;99349.40;106520;1257;72906;-79
2023/02/15 10:19:57;;;;;;;150.90;49.20;;;;;;;5.47;100.00;99348.46;106315;1257;72271;-79
2023/02/15 10:22:35;;;;;;;33.50;16.50;;;;;;;5.54;100.00;99348.42;108956;1254;72084;-80
2023/02/15 10:25:37;;;;;;;29.10;13.50;;;;;;;5.61;100.00;99347.30;106391;1258;60519;-77
2023/02/15 10:28:18;;;;;;;27.60;12.20;;;;;;;5.72;100.00;99340.76;106248;1255;60518;-79
2023/02/15 10:30:50;;;;;;;29.20;13.90;;;;;;;5.89;100.00;99338.67;108149;1254;72588;-80
2023/02/15 10:33:39;;;;;;;23.50;13.10;;;;;;;6.07;99.91;99335.67;106736;1256;69948;-79
2023/02/15 10:36:10;;;;;;;;;;;;;;;6.19;98.62;99336.36;106233;1254;71396;-79
2023/02/15 10:38:40;;;;;;;21.90;14.20;;;;;;;6.27;98.00;99338.50;106598;1257;60559;-77
2023/02/15 10:41:34;;;;;;;35.20;14.30;;;;;;;6.29;99.68;99332.42;107520;1254;60460;-80
2023/02/15 10:44:23;;;;;;;23.10;13.40;;;;;;;6.29;99.64;99330.85;106764;1253;72962;-79
2023/02/15 10:46:49;;;;;;;;;;;;;;;6.33;98.74;99329.50;106403;1257;70323;-77
2023/02/15 10:49:44;;;;;;;23.80;11.60;;;;;;;6.39;98.80;99323.69;106225;1254;60610;-79
2023/02/15 10:52:23;;;;;;;24.40;12.60;;;;;;;6.43;97.76;99317.11;108228;1254;60274;-77
2023/02/15 10:55:18;;;;;;;21.30;12.70;;;;;;;6.47;98.13;99312.96;106281;1257;60475;-79
2023/02/15 10:58:26;;;;;;;34.30;14.80;;;;;;;6.48;97.35;99309.30;106648;1256;73748;-77
2023/02/15 11:01:19;;;;;;;64.50;27.70;;;;;;;6.46;98.62;99306.42;107213;1253;68957;-78
2023/02/15 11:04:16;;;;;;;23.60;14.20;;;;;;;6.46;98.80;99303.19;106811;1260;72549;-76
2023/02/15 11:06:51;;;;;;;20.50;11.90;;;;;;;6.49;97.16;99299.44;106220;1254;60497;-82
2023/02/15 11:09:18;;;;;;;20.90;12.00;;;;;;;6.56;96.03;99298.84;106415;1254;60331;-81
2023/02/15 11:11:46;;;;;;;54.40;30.80;;;;;;;6.56;94.42;99290.17;107453;1254;73068;-80
2023/02/15 11:14:31;;;;;;;19.50;12.10;;;;;;;6.62;96.57;99292.35;106262;1263;70053;-77
2023/02/15 11:17:02;;;;;;;18.70;9.20;;;;;;;6.71;96.28;99288.44;106117;1254;72542;-79
2023/02/15 11:19:32;;;;;;;18.70;11.20;;;;;;;6.78;97.24;99288.49;106145;1254;60361;-79
2023/02/15 11:22:00;;;;;;;20.70;9.50;;;;;;;6.85;96.80;99284.74;108324;1254;59515;-80
2023/02/15 11:24:29;;;;;;;17.50;10.30;;;;;;;6.94;96.78;99283.67;106218;1260;73721;-78
2023/02/15 11:27:05;;;;;;;21.50;9.50;;;;;;;7.03;96.56;99279.51;106043;1257;71053;-79
2023/02/15 11:29:52;;;;;;;17.40;9.60;;;;;;;7.11;95.85;99274.35;106435;1260;70480;-77
2023/02/15 11:32:30;;;;;;;18.50;9.60;;;;;;;7.19;96.12;99268.36;108059;1253;59327;-78
2023/02/15 11:35:18;;;;;;;32.10;16.10;;;;;;;7.21;96.51;99266.58;106152;1268;60368;-80
2023/02/15 11:38:09;;;;;;;18.40;10.80;;;;;;;7.22;96.93;99259.44;106348;1260;72591;-79
2023/02/15 11:40:44;;;;;;;20.60;10.30;;;;;;;7.27;95.77;99258.45;106749;1254;70991;-80
2023/02/15 11:43:13;;;;;;;19.60;10.50;;;;;;;7.37;96.42;99255.72;107005;1259;72566;-78
2023/02/15 11:45:41;;;;;;;30.10;11.80;;;;;;;7.43;95.38;99252.39;106488;1255;60545;-77
2023/02/15 11:48:11;;;;;;;15.60;10.00;;;;;;;7.48;93.68;99251.35;106148;1255;60431;-77
2023/02/15 11:50:38;;;;;;;16.90;9.10;;;;;;;7.52;92.09;99249.19;106925;1254;73809;-78
2023/02/15 11:53:20;;;;;;;37.30;11.80;;;;;;;7.59;92.30;99247.76;106537;1254;69963;-77
2023/02/15 11:55:48;;;;;;;38.10;12.10;;;;;;;7.70;92.92;99246.10;106311;1254;72571;-80